createdAt,value
2018-01-11T00:00:01.829Z,10.43
2018-01-11T00:02:29.304Z,11.33
2018-01-11T00:04:56.768Z,10.57
2018-01-11T00:07:24.246Z,11.20
2018-01-11T00:09:51.704Z,10.97
2018-01-11T00:12:19.191Z,11.43
2018-01-11T00:14:46.647Z,10.83
2018-01-11T00:17:14.104Z,11.43
2018-01-11T00:19:41.574Z,10.30
2018-01-11T00:22:09.036Z,10.80
2018-01-11T00:24:36.511Z,10.63
2018-01-11T00:27:03.974Z,10.73
2018-01-11T00:29:31.446Z,11.13
2018-01-11T00:31:58.907Z,10.53
2018-01-11T00:34:26.390Z,11.43
2018-01-11T00:36:53.851Z,10.70
2018-01-11T00:39:21.358Z,11.63
2018-01-11T00:41:48.843Z,11.43
2018-01-11T00:44:16.302Z,10.97
2018-01-11T00:46:43.778Z,10.40
2018-01-11T00:49:11.236Z,10.60
2018-01-11T00:51:38.713Z,9.87
2018-01-11T00:54:06.171Z,10.83
2018-01-11T00:56:33.652Z,9.63
2018-01-11T00:59:01.117Z,10.20
2018-01-11T01:01:28.610Z,10.20
2018-01-11T01:03:56.067Z,10.03
2018-01-11T01:06:23.523Z,10.43
2018-01-11T01:08:50.995Z,10.43
2018-01-11T01:11:18.448Z,10.73
2018-01-11T01:13:45.932Z,10.80
2018-01-11T01:16:13.418Z,10.37
2018-01-11T01:18:40.890Z,11.00
2018-01-11T01:21:08.346Z,10.70
2018-01-11T01:23:35.856Z,10.83
2018-01-11T01:26:03.316Z,12.07
2018-01-11T01:28:30.775Z,10.80
2018-01-11T01:30:58.247Z,10.90
2018-01-11T01:33:25.722Z,11.47
2018-01-11T01:35:53.202Z,11.73
2018-01-11T01:38:20.660Z,11.77
2018-01-11T01:43:09.434Z,11.77
2018-01-11T01:45:36.911Z,12.27
2018-01-11T01:48:04.370Z,11.83
2018-01-11T01:50:31.863Z,11.80
2018-01-11T01:52:59.323Z,10.97
2018-01-11T01:55:26.804Z,12.00
2018-01-11T01:57:54.280Z,11.80
2018-01-11T02:00:21.747Z,11.23
2018-01-11T02:02:49.223Z,12.23
2018-01-11T02:05:16.679Z,11.57
2018-01-11T02:07:44.163Z,11.97
2018-01-11T02:10:11.630Z,11.93
2018-01-11T02:12:39.124Z,12.30
2018-01-11T02:15:06.587Z,12.40
2018-01-11T02:17:34.053Z,11.73
2018-01-11T02:20:01.536Z,11.17
2018-01-11T02:22:28.999Z,11.67
2018-01-11T02:24:56.771Z,12.53
2018-01-11T02:27:24.237Z,13.30
2018-01-11T02:29:51.711Z,13.43
2018-01-11T02:32:19.163Z,13.60
2018-01-11T02:34:46.643Z,14.90
2018-01-11T02:37:14.111Z,14.03
2018-01-11T02:39:41.636Z,13.80
2018-01-11T02:42:09.091Z,13.37
2018-01-11T02:44:36.543Z,14.53
2018-01-11T02:47:04.035Z,15.10
2018-01-11T02:49:31.494Z,14.80
2018-01-11T02:51:58.971Z,15.10
2018-01-11T02:54:26.437Z,15.20
2018-01-11T02:56:53.906Z,15.17
2018-01-11T02:59:21.365Z,15.07
2018-01-11T03:01:48.848Z,14.87
2018-01-11T03:04:16.298Z,15.57
2018-01-11T03:06:43.783Z,14.80
2018-01-11T03:09:11.276Z,15.47
2018-01-11T03:11:38.738Z,15.40
2018-01-11T03:14:06.224Z,14.57
2018-01-11T03:16:33.684Z,14.60
2018-01-11T03:19:01.175Z,15.07
2018-01-11T03:21:28.646Z,14.53
2018-01-11T03:23:56.511Z,15.40
2018-01-11T03:26:23.970Z,14.60
2018-01-11T03:28:51.430Z,15.40
2018-01-11T03:31:18.908Z,16.07
2018-01-11T03:33:46.362Z,16.40
2018-01-11T03:36:13.843Z,16.13
2018-01-11T03:38:41.295Z,16.37
2018-01-11T03:41:08.787Z,15.53
2018-01-11T03:43:36.255Z,15.13
2018-01-11T03:46:03.755Z,16.67
2018-01-11T03:48:31.215Z,16.83
2018-01-11T03:50:58.672Z,17.00
2018-01-11T03:53:26.151Z,16.80
2018-01-11T03:55:53.609Z,17.83
2018-01-11T03:58:21.083Z,17.17
2018-01-11T04:00:48.551Z,17.43
2018-01-11T04:03:16.088Z,17.07
2018-01-11T04:05:43.549Z,18.27
2018-01-11T04:08:11.023Z,16.87
2018-01-11T04:10:38.487Z,18.73
2018-01-11T04:13:05.953Z,18.57
2018-01-11T04:18:07.191Z,17.10
2018-01-11T04:20:34.679Z,18.23
2018-01-11T04:23:02.139Z,18.23
2018-01-11T04:28:03.287Z,18.90
2018-01-11T04:30:30.775Z,18.10
2018-01-11T04:32:58.236Z,18.17
2018-01-11T04:35:25.690Z,18.07
2018-01-11T04:37:53.166Z,17.67
2018-01-11T04:40:20.627Z,17.97
2018-01-11T04:42:48.103Z,18.17
2018-01-11T04:45:15.564Z,18.47
2018-01-11T04:47:43.043Z,18.07
2018-01-11T04:50:10.499Z,17.90
2018-01-11T04:52:37.987Z,16.80
2018-01-11T04:55:05.447Z,17.63
2018-01-11T04:57:33.067Z,16.70
2018-01-11T05:00:00.594Z,16.53
2018-01-11T05:02:28.055Z,16.27
2018-01-11T05:04:55.531Z,16.97
2018-01-11T05:07:22.999Z,15.13
2018-01-11T05:09:50.479Z,16.50
2018-01-11T05:12:17.960Z,15.23
2018-01-11T05:14:45.447Z,15.60
2018-01-11T05:17:12.904Z,14.13
2018-01-11T05:19:40.363Z,14.90
2018-01-11T05:22:07.835Z,14.50
2018-01-11T05:24:35.292Z,13.33
2018-01-11T05:27:02.775Z,14.60
2018-01-11T05:29:30.237Z,15.87
2018-01-11T05:31:57.711Z,15.83
2018-01-11T05:34:25.179Z,17.33
2018-01-11T05:36:52.658Z,16.50
2018-01-11T05:39:20.147Z,16.30
2018-01-11T05:41:47.643Z,17.60
2018-01-11T05:44:15.099Z,16.43
2018-01-11T05:46:42.564Z,17.00
2018-01-11T05:49:10.034Z,15.17
2018-01-11T05:51:37.490Z,15.80
2018-01-11T05:54:04.995Z,14.77
2018-01-11T05:56:32.459Z,16.00
2018-01-11T05:58:59.930Z,14.97
2018-01-11T06:01:27.383Z,15.63
2018-01-11T06:03:54.850Z,15.03
2018-01-11T06:06:22.323Z,14.37
2018-01-11T06:08:49.824Z,15.27
2018-01-11T06:11:17.289Z,15.90
2018-01-11T06:13:44.748Z,15.07
2018-01-11T06:16:12.228Z,15.77
2018-01-11T06:18:39.690Z,14.83
2018-01-11T06:21:07.175Z,15.33
2018-01-11T06:23:34.643Z,14.73
2018-01-11T06:26:02.119Z,15.37
2018-01-11T06:28:29.576Z,15.47
2018-01-11T06:30:57.067Z,14.00
2018-01-11T06:33:24.523Z,14.17
2018-01-11T06:35:52.020Z,14.13
2018-01-11T06:38:19.487Z,15.60
2018-01-11T06:40:46.979Z,15.03
2018-01-11T06:43:14.450Z,14.50
2018-01-11T06:45:41.915Z,14.17
2018-01-11T06:48:09.394Z,14.53
2018-01-11T06:50:36.865Z,15.07
2018-01-11T06:53:04.343Z,15.33
2018-01-11T06:55:31.798Z,15.17
2018-01-11T06:57:59.276Z,15.90
2018-01-11T07:00:26.736Z,16.07
2018-01-11T07:02:54.263Z,16.10
2018-01-11T07:05:21.727Z,16.20
2018-01-11T07:07:49.186Z,14.90
2018-01-11T07:10:16.666Z,15.00
2018-01-11T07:12:44.118Z,15.27
2018-01-11T07:15:11.600Z,15.07
2018-01-11T07:17:39.068Z,15.60
2018-01-11T07:20:06.550Z,14.97
2018-01-11T07:22:34.011Z,15.17
2018-01-11T07:25:01.495Z,15.87
2018-01-11T07:27:28.964Z,16.13
2018-01-11T07:29:56.444Z,15.47
2018-01-11T07:32:23.910Z,16.30
2018-01-11T07:34:51.383Z,15.50
2018-01-11T07:37:18.839Z,16.23
2018-01-11T07:39:46.319Z,16.23
2018-01-11T07:42:13.771Z,16.10
2018-01-11T07:44:41.247Z,15.93
2018-01-11T07:47:08.702Z,15.53
2018-01-11T07:49:36.187Z,15.63
2018-01-11T07:52:03.973Z,15.57
2018-01-11T07:54:31.455Z,14.57
2018-01-11T07:56:58.918Z,15.03
2018-01-11T07:59:26.403Z,15.17
2018-01-11T08:01:53.859Z,15.17
2018-01-11T08:04:21.350Z,15.47
2018-01-11T08:06:48.811Z,14.87
2018-01-11T08:09:16.331Z,14.07
2018-01-11T08:11:43.780Z,15.07
2018-01-11T08:14:11.274Z,13.90
2018-01-11T08:16:38.737Z,14.00
2018-01-11T08:19:06.208Z,17.85
2018-01-11T08:21:33.703Z,14.67
2018-01-11T08:24:01.172Z,14.53
2018-01-11T08:26:28.659Z,14.10
2018-01-11T08:28:56.121Z,14.60
2018-01-11T08:31:23.616Z,14.37
2018-01-11T08:33:51.084Z,14.70
2018-01-11T08:36:18.558Z,13.47
2018-01-11T08:38:46.023Z,13.47
2018-01-11T08:41:13.509Z,13.40
2018-01-11T08:43:40.975Z,12.57
2018-01-11T08:46:08.465Z,13.37
2018-01-11T08:48:35.936Z,14.13
2018-01-11T08:51:03.411Z,14.10
2018-01-11T08:53:31.599Z,13.57
2018-01-11T08:55:59.078Z,13.17
2018-01-11T08:58:27.470Z,13.53
2018-01-11T09:00:55.830Z,12.70
2018-01-11T09:03:23.290Z,12.87
2018-01-11T09:05:50.770Z,13.00
2018-01-11T09:08:18.236Z,13.20
2018-01-11T09:10:45.732Z,11.73
2018-01-11T09:13:13.187Z,12.63
2018-01-11T09:15:40.672Z,12.60
2018-01-11T09:18:08.135Z,11.73
2018-01-11T09:20:35.618Z,12.57
2018-01-11T09:23:03.107Z,12.00
2018-01-11T09:25:30.596Z,12.70
2018-01-11T09:27:58.054Z,12.70
2018-01-11T09:30:25.535Z,11.17
2018-01-11T09:32:52.999Z,11.27
2018-01-11T09:35:20.482Z,12.03
2018-01-11T09:37:47.951Z,11.97
2018-01-11T09:40:15.411Z,11.90
2018-01-11T09:42:42.895Z,12.80
2018-01-11T09:45:10.406Z,12.53
2018-01-11T09:47:37.850Z,12.80
2018-01-11T09:50:05.316Z,12.03
2018-01-11T09:52:32.795Z,12.53
2018-01-11T09:55:00.267Z,12.13
2018-01-11T09:57:27.750Z,12.63
2018-01-11T09:59:55.206Z,12.27
2018-01-11T10:02:22.691Z,12.03
2018-01-11T10:04:50.163Z,12.47
2018-01-11T10:07:17.665Z,12.10
2018-01-11T10:09:45.126Z,11.77
2018-01-11T10:12:12.607Z,12.47
2018-01-11T10:14:40.067Z,11.30
2018-01-11T10:17:07.565Z,11.57
2018-01-11T10:19:35.048Z,12.43
2018-01-11T10:22:02.535Z,10.80
2018-01-11T10:24:30.009Z,11.73
2018-01-11T10:26:57.507Z,11.17
2018-01-11T10:29:24.976Z,10.93
2018-01-11T10:31:52.463Z,10.27
2018-01-11T10:34:19.922Z,11.23
2018-01-11T10:36:47.414Z,11.67
2018-01-11T10:39:14.895Z,11.03
2018-01-11T10:41:42.477Z,10.77
2018-01-11T10:44:10.020Z,10.67
2018-01-11T10:46:37.588Z,10.97
2018-01-11T10:49:05.128Z,11.90
2018-01-11T10:51:32.644Z,11.43
2018-01-11T10:54:00.103Z,11.60
2018-01-11T10:56:27.590Z,11.03
2018-01-11T10:58:55.050Z,10.63
2018-01-11T11:01:28.029Z,11.40
2018-01-11T11:03:55.486Z,11.73
2018-01-11T11:06:22.948Z,10.53
2018-01-11T11:08:50.423Z,11.37
2018-01-11T11:11:17.884Z,12.87
2018-01-11T11:13:45.363Z,12.10
2018-01-11T11:16:12.835Z,12.97
2018-01-11T11:18:40.324Z,12.47
2018-01-11T11:21:07.788Z,11.63
2018-01-11T11:23:36.061Z,11.07
2018-01-11T11:26:03.575Z,11.27
2018-01-11T11:28:31.101Z,11.50
2018-01-11T11:30:58.611Z,13.03
2018-01-11T11:33:26.128Z,11.83
2018-01-11T11:35:53.635Z,12.20
2018-01-11T11:38:21.167Z,12.20
2018-01-11T11:40:48.712Z,11.73
2018-01-11T11:43:16.284Z,11.13
2018-01-11T11:45:43.832Z,12.27
2018-01-11T11:48:11.365Z,11.60
2018-01-11T11:50:38.852Z,12.37
2018-01-11T11:53:06.356Z,11.70
2018-01-11T11:55:33.879Z,11.67
2018-01-11T11:58:01.385Z,12.30
2018-01-11T12:00:28.900Z,13.03
2018-01-11T12:02:56.412Z,11.77
2018-01-11T12:05:25.900Z,13.13
2018-01-11T12:07:53.431Z,13.73
2018-01-11T12:10:20.971Z,12.33
2018-01-11T12:12:48.459Z,11.67
2018-01-11T12:15:15.954Z,11.90
2018-01-11T12:17:43.527Z,12.33
2018-01-11T12:20:11.060Z,11.60
2018-01-11T12:22:38.604Z,12.00
2018-01-11T12:25:06.104Z,13.17
2018-01-11T12:27:33.693Z,12.87
2018-01-11T12:30:01.203Z,13.47
2018-01-11T12:32:28.708Z,13.13
2018-01-11T12:34:56.288Z,15.27
2018-01-11T12:37:23.817Z,14.53
2018-01-11T12:39:51.379Z,12.47
2018-01-11T12:42:18.880Z,13.17
2018-01-11T12:44:46.404Z,13.03
2018-01-11T12:47:13.903Z,13.93
2018-01-11T12:49:41.423Z,13.27
2018-01-11T12:52:08.883Z,14.03
2018-01-11T12:54:37.351Z,13.40
2018-01-11T12:57:04.849Z,12.23
2018-01-11T12:59:32.363Z,11.27
2018-01-11T13:01:59.846Z,11.33
2018-01-11T13:04:27.359Z,11.87
2018-01-11T13:06:54.838Z,11.10
2018-01-11T13:09:22.315Z,11.20
2018-01-11T13:11:49.779Z,10.77
2018-01-11T13:14:17.262Z,10.73
2018-01-11T13:16:44.720Z,9.60
2018-01-11T13:19:12.251Z,10.30
2018-01-11T13:21:39.687Z,11.07
2018-01-11T13:24:07.895Z,12.33
2018-01-11T13:26:35.411Z,12.43
2018-01-11T13:29:03.276Z,11.37
2018-01-11T13:31:30.835Z,10.97
2018-01-11T13:33:58.376Z,11.53
2018-01-11T13:36:25.948Z,11.53
2018-01-11T13:38:53.511Z,11.03
2018-01-11T13:41:21.092Z,11.60
2018-01-11T13:43:48.672Z,11.50
2018-01-11T13:46:16.135Z,11.97
2018-01-11T13:48:43.709Z,11.67
2018-01-11T13:51:11.213Z,12.20
2018-01-11T13:53:38.762Z,12.43
2018-01-11T13:56:06.266Z,11.33
2018-01-11T13:58:33.756Z,10.30
2018-01-11T14:01:01.280Z,9.37
2018-01-11T14:03:28.817Z,10.27
2018-01-11T14:05:56.295Z,11.20
2018-01-11T14:08:23.767Z,10.83
2018-01-11T14:10:51.399Z,12.40
2018-01-11T14:13:18.888Z,11.67
2018-01-11T14:15:46.448Z,11.90
2018-01-11T14:18:13.924Z,11.30
2018-01-11T14:20:41.443Z,11.77
2018-01-11T14:23:08.963Z,12.40
2018-01-11T14:25:36.495Z,11.67
2018-01-11T14:28:03.993Z,12.27
2018-01-11T14:30:31.475Z,12.47
2018-01-11T14:32:58.940Z,12.67
2018-01-11T14:35:26.419Z,12.37
2018-01-11T14:37:53.880Z,12.40
2018-01-11T14:40:21.370Z,12.17
2018-01-11T14:42:48.845Z,12.73
2018-01-11T14:45:16.363Z,12.37
2018-01-11T14:47:43.898Z,13.00
2018-01-11T14:50:11.432Z,12.27
2018-01-11T14:52:38.920Z,18.70
2018-01-11T14:55:06.436Z,18.70
2018-01-11T14:57:33.953Z,21.53
2018-01-11T15:00:01.480Z,20.27
2018-01-11T15:02:28.991Z,14.63
2018-01-11T15:04:56.530Z,14.00
2018-01-11T15:07:24.078Z,13.27
2018-01-11T15:09:51.657Z,12.90
2018-01-11T15:12:19.180Z,12.70
2018-01-11T15:14:46.643Z,13.07
2018-01-11T15:17:14.122Z,12.67
2018-01-11T15:19:41.581Z,12.13
2018-01-11T15:22:09.075Z,12.63
2018-01-11T15:24:36.542Z,12.87
2018-01-11T15:27:04.028Z,11.70
2018-01-11T15:29:31.490Z,11.60
2018-01-11T15:31:58.979Z,12.57
2018-01-11T15:34:26.441Z,11.13
2018-01-11T15:36:53.943Z,11.20
2018-01-11T15:39:22.143Z,11.10
2018-01-11T15:41:49.632Z,12.57
2018-01-11T15:44:17.975Z,13.20
2018-01-11T15:46:45.458Z,12.90
2018-01-11T15:49:12.914Z,11.80
2018-01-11T15:51:40.395Z,12.27
2018-01-11T15:54:07.860Z,11.40
2018-01-11T15:56:35.360Z,11.53
2018-01-11T15:59:02.822Z,14.33
2018-01-11T16:01:30.307Z,12.90
2018-01-11T16:03:57.771Z,12.77
2018-01-11T16:06:25.253Z,13.37
2018-01-11T16:08:52.719Z,14.40
2018-01-11T16:11:20.199Z,16.70
2018-01-11T16:13:48.479Z,15.73
2018-01-11T16:16:16.827Z,16.10
2018-01-11T16:18:44.289Z,18.20
2018-01-11T16:21:11.776Z,15.87
2018-01-11T16:23:39.241Z,16.37
2018-01-11T16:26:06.725Z,16.17
2018-01-11T16:28:34.200Z,16.03
2018-01-11T16:31:01.720Z,17.17
2018-01-11T16:33:29.187Z,19.33
2018-01-11T16:35:56.659Z,23.67
2018-01-11T16:38:24.134Z,18.30
2018-01-11T16:40:51.595Z,19.47
2018-01-11T16:43:19.080Z,17.50
2018-01-11T16:45:46.562Z,16.17
2018-01-11T16:48:14.047Z,16.43
2018-01-11T16:50:41.511Z,18.00
2018-01-11T16:53:08.999Z,17.00
2018-01-11T16:55:36.460Z,18.47
2018-01-11T16:58:03.947Z,19.07
2018-01-11T17:00:31.411Z,19.13
2018-01-11T17:02:58.895Z,16.80
2018-01-11T17:05:26.350Z,16.60
2018-01-11T17:07:53.831Z,18.10
2018-01-11T17:10:21.295Z,19.17
2018-01-11T17:12:48.787Z,21.70
2018-01-11T17:15:16.254Z,27.00
2018-01-11T17:17:43.743Z,19.73
2018-01-11T17:20:11.209Z,19.93
2018-01-11T17:22:38.688Z,25.27
2018-01-11T17:25:06.149Z,35.47
2018-01-11T17:27:33.832Z,24.20
2018-01-11T17:30:01.297Z,42.93
2018-01-11T17:32:28.783Z,52.47
2018-01-11T17:34:56.256Z,77.60
2018-01-11T17:37:23.748Z,77.17
2018-01-11T17:39:51.214Z,67.43
2018-01-11T17:42:18.700Z,29.50
2018-01-11T17:44:46.164Z,25.67
2018-01-11T17:47:13.639Z,22.10
2018-01-11T17:49:41.103Z,20.70
2018-01-11T17:52:08.588Z,21.90
2018-01-11T17:54:36.069Z,24.33
2018-01-11T17:57:03.531Z,24.37
2018-01-11T17:59:31.031Z,23.00
2018-01-11T18:01:58.498Z,21.37
2018-01-11T18:04:25.987Z,21.97
2018-01-11T18:06:53.442Z,22.53
2018-01-11T18:09:20.939Z,23.30
2018-01-11T18:11:48.396Z,24.03
2018-01-11T18:14:15.887Z,22.67
2018-01-11T18:16:43.351Z,20.63
2018-01-11T18:19:10.831Z,20.70
2018-01-11T18:21:38.286Z,20.33
2018-01-11T18:24:05.833Z,19.90
2018-01-11T18:26:33.298Z,21.87
2018-01-11T18:29:00.781Z,23.97
2018-01-11T18:31:28.241Z,25.10
2018-01-11T18:33:55.724Z,23.97
2018-01-11T18:36:23.188Z,23.77
2018-01-11T18:38:50.675Z,24.60
2018-01-11T18:41:18.147Z,25.97
2018-01-11T18:43:45.623Z,24.27
2018-01-11T18:46:13.091Z,24.97
2018-01-11T18:48:40.583Z,24.60
2018-01-11T18:51:08.046Z,24.50
2018-01-11T18:53:35.526Z,22.47
2018-01-11T18:56:02.991Z,25.43
2018-01-11T18:58:30.474Z,25.90
2018-01-11T19:00:57.939Z,24.10
2018-01-11T19:03:25.428Z,25.97
2018-01-11T19:05:52.888Z,25.60
2018-01-11T19:08:20.373Z,26.60
2018-01-11T19:10:47.835Z,27.87
2018-01-11T19:13:15.341Z,25.27
2018-01-11T19:15:42.814Z,24.80
2018-01-11T19:18:10.280Z,30.57
2018-01-11T19:20:37.763Z,31.40
2018-01-11T19:23:05.223Z,25.07
2018-01-11T19:25:32.716Z,27.87
2018-01-11T19:28:00.193Z,26.17
2018-01-11T19:30:27.675Z,27.23
2018-01-11T19:32:55.138Z,28.33
2018-01-11T19:35:22.908Z,28.23
2018-01-11T19:37:50.375Z,28.00
2018-01-11T19:40:17.863Z,27.77
2018-01-11T19:42:45.324Z,27.10
2018-01-11T19:45:12.807Z,27.40
2018-01-11T19:47:40.272Z,26.53
2018-01-11T19:50:07.766Z,26.90
2018-01-11T19:52:35.236Z,26.27
2018-01-11T19:55:02.718Z,27.57
2018-01-11T19:57:30.196Z,27.20
2018-01-11T19:59:57.682Z,27.00
2018-01-11T20:02:25.147Z,27.07
2018-01-11T20:04:52.631Z,28.53
2018-01-11T20:07:20.096Z,27.33
2018-01-11T20:09:47.579Z,27.83
2018-01-11T20:12:15.044Z,28.37
2018-01-11T20:14:42.522Z,28.07
2018-01-11T20:17:09.987Z,28.43
2018-01-11T20:19:37.488Z,30.10
2018-01-11T20:22:04.955Z,32.17
2018-01-11T20:24:32.423Z,30.60
2018-01-11T20:26:59.903Z,30.60
2018-01-11T20:29:27.367Z,29.43
2018-01-11T20:31:54.860Z,30.30
2018-01-11T20:34:22.323Z,30.00
2018-01-11T20:36:49.803Z,29.50
2018-01-11T20:39:17.271Z,29.20
2018-01-11T20:41:44.750Z,28.53
2018-01-11T20:44:12.207Z,30.37
2018-01-11T20:46:39.699Z,29.27
2018-01-11T20:49:07.164Z,29.47
2018-01-11T20:51:34.686Z,30.90
2018-01-11T20:54:02.144Z,30.47
2018-01-11T20:56:29.602Z,29.23
2018-01-11T20:58:57.091Z,31.00
2018-01-11T21:01:24.555Z,31.53
2018-01-11T21:03:52.039Z,34.00
2018-01-11T21:06:19.499Z,47.17
2018-01-11T21:08:46.987Z,43.20
2018-01-11T21:11:14.442Z,31.67
2018-01-11T21:13:41.938Z,30.60
2018-01-11T21:16:09.405Z,31.93
2018-01-11T21:18:36.887Z,34.90
2018-01-11T21:21:04.398Z,34.37
2018-01-11T21:23:31.922Z,39.13
2018-01-11T21:25:59.383Z,45.67
2018-01-11T21:28:26.878Z,33.07
2018-01-11T21:30:55.107Z,30.27
2018-01-11T21:33:22.676Z,30.13
2018-01-11T21:35:50.198Z,29.40
2018-01-11T21:38:17.654Z,29.43
2018-01-11T21:40:45.139Z,30.80
2018-01-11T21:43:12.599Z,30.37
2018-01-11T21:45:40.078Z,32.60
2018-01-11T21:48:07.539Z,30.03
2018-01-11T21:50:35.038Z,30.00
2018-01-11T21:53:02.502Z,30.57
2018-01-11T21:55:30.201Z,32.07
2018-01-11T21:57:57.689Z,31.47
2018-01-11T22:00:25.161Z,30.00
2018-01-11T22:02:52.653Z,30.87
2018-01-11T22:05:20.114Z,30.83
2018-01-11T22:07:47.598Z,30.97
2018-01-11T22:10:15.060Z,30.37
2018-01-11T22:12:42.535Z,33.07
2018-01-11T22:15:09.990Z,33.10
2018-01-11T22:17:37.473Z,33.10
2018-01-11T22:20:04.931Z,32.73
2018-01-11T22:22:32.436Z,36.77
2018-01-11T22:24:59.898Z,34.77
2018-01-11T22:27:27.358Z,33.97
2018-01-11T22:29:54.843Z,34.07
2018-01-11T22:32:22.307Z,34.50
2018-01-11T22:34:49.788Z,33.57
2018-01-11T22:37:17.259Z,33.77
2018-01-11T22:39:44.746Z,34.87
2018-01-11T22:42:12.208Z,32.97
2018-01-11T22:44:39.711Z,34.53
2018-01-11T22:47:07.198Z,34.37
2018-01-11T22:49:34.661Z,34.67
2018-01-11T22:52:02.143Z,35.43
2018-01-11T22:54:29.606Z,35.40
2018-01-11T22:56:57.087Z,33.73
2018-01-11T22:59:24.555Z,35.03
2018-01-11T23:01:52.034Z,35.77
2018-01-11T23:04:19.492Z,35.43
2018-01-11T23:06:46.983Z,36.77
2018-01-11T23:09:14.455Z,35.60
2018-01-11T23:11:42.802Z,35.70
2018-01-11T23:14:10.259Z,35.00
2018-01-11T23:16:37.784Z,35.20
2018-01-11T23:19:05.317Z,36.70
2018-01-11T23:21:32.775Z,35.37
2018-01-11T23:24:00.259Z,36.90
2018-01-11T23:26:27.718Z,36.63
2018-01-11T23:28:55.202Z,37.10
2018-01-11T23:31:22.659Z,36.43
2018-01-11T23:33:50.138Z,36.37
2018-01-11T23:36:17.607Z,35.70
2018-01-11T23:38:45.103Z,35.23
2018-01-11T23:41:12.559Z,36.10
2018-01-11T23:43:40.019Z,34.50
2018-01-11T23:46:07.499Z,34.93
2018-01-11T23:48:34.955Z,34.10
2018-01-11T23:51:02.448Z,34.27
2018-01-11T23:53:29.907Z,35.43
2018-01-11T23:55:57.398Z,34.97
2018-01-11T23:58:24.857Z,38.13
